sensor_id;sensor_type;location;lat;lon;timestamp;pressure;altitude;pressure_sealevel;temperature;humidity
54556;BME280;57291;37.520;15.106;2023-01-30T00:00:56;101618.47;;;8.36;69.65
54556;BME280;57291;37.520;15.106;2023-01-30T00:03:23;101617.88;;;8.34;69.58
54556;BME280;57291;37.520;15.106;2023-01-30T00:05:51;101626.81;;;8.35;69.70
54556;BME280;57291;37.520;15.106;2023-01-30T00:08:18;101623.31;;;8.34;69.52
54556;BME280;57291;37.520;15.106;2023-01-30T00:10:46;101624.94;;;8.35;69.61
54556;BME280;57291;37.520;15.106;2023-01-30T00:13:14;101629.53;;;8.35;69.73
54556;BME280;57291;37.520;15.106;2023-01-30T00:15:41;101637.13;;;8.33;69.75
54556;BME280;57291;37.520;15.106;2023-01-30T00:18:09;101629.50;;;8.30;69.60
54556;BME280;57291;37.520;15.106;2023-01-30T00:20:36;101635.16;;;8.28;69.72
54556;BME280;57291;37.520;15.106;2023-01-30T00:23:04;101633.78;;;8.26;69.55
54556;BME280;57291;37.520;15.106;2023-01-30T00:25:31;101636.75;;;8.24;69.54
54556;BME280;57291;37.520;15.106;2023-01-30T00:27:59;101637.00;;;8.22;69.45
54556;BME280;57291;37.520;15.106;2023-01-30T00:30:28;101627.75;;;8.18;69.83
54556;BME280;57291;37.520;15.106;2023-01-30T00:32:57;101629.34;;;8.14;69.97
54556;BME280;57291;37.520;15.106;2023-01-30T00:35:25;101626.84;;;8.08;70.21
54556;BME280;57291;37.520;15.106;2023-01-30T00:37:58;101630.88;;;8.05;70.62
54556;BME280;57291;37.520;15.106;2023-01-30T00:40:26;101616.31;;;8.06;70.80
54556;BME280;57291;37.520;15.106;2023-01-30T00:42:54;101619.53;;;8.08;70.50
54556;BME280;57291;37.520;15.106;2023-01-30T00:45:42;101616.53;;;8.05;70.53
54556;BME280;57291;37.520;15.106;2023-01-30T00:48:30;101621.38;;;8.03;71.03
54556;BME280;57291;37.520;15.106;2023-01-30T00:50:57;101612.97;;;7.99;71.05
54556;BME280;57291;37.520;15.106;2023-01-30T00:53:26;101612.94;;;7.94;71.21
54556;BME280;57291;37.520;15.106;2023-01-30T00:55:53;101609.41;;;7.93;71.13
54556;BME280;57291;37.520;15.106;2023-01-30T00:58:22;101612.63;;;7.90;71.22
54556;BME280;57291;37.520;15.106;2023-01-30T01:00:50;101607.44;;;7.89;71.51
54556;BME280;57291;37.520;15.106;2023-01-30T01:03:18;101598.78;;;7.87;71.42
54556;BME280;57291;37.520;15.106;2023-01-30T01:05:45;101604.19;;;7.87;71.45
54556;BME280;57291;37.520;15.106;2023-01-30T01:08:13;101604.44;;;7.85;71.51
54556;BME280;57291;37.520;15.106;2023-01-30T01:10:40;101598.16;;;7.80;71.59
54556;BME280;57291;37.520;15.106;2023-01-30T01:13:07;101607.03;;;7.75;71.57
54556;BME280;57291;37.520;15.106;2023-01-30T01:15:36;101608.88;;;7.69;71.93
54556;BME280;57291;37.520;15.106;2023-01-30T01:18:04;101605.84;;;7.66;71.95
54556;BME280;57291;37.520;15.106;2023-01-30T01:20:32;101610.97;;;7.62;72.21
54556;BME280;57291;37.520;15.106;2023-01-30T01:22:59;101608.75;;;7.59;72.23
54556;BME280;57291;37.520;15.106;2023-01-30T01:25:26;101602.53;;;7.59;72.53
54556;BME280;57291;37.520;15.106;2023-01-30T01:27:53;101606.00;;;7.54;72.83
54556;BME280;57291;37.520;15.106;2023-01-30T01:30:21;101602.22;;;7.55;72.96
54556;BME280;57291;37.520;15.106;2023-01-30T01:32:48;101605.50;;;7.57;72.90
54556;BME280;57291;37.520;15.106;2023-01-30T01:35:15;101595.75;;;7.56;72.67
54556;BME280;57291;37.520;15.106;2023-01-30T01:37:43;101603.31;;;7.54;72.78
54556;BME280;57291;37.520;15.106;2023-01-30T01:40:18;101586.50;;;7.52;73.15
54556;BME280;57291;37.520;15.106;2023-01-30T01:43:20;101596.25;;;7.53;72.89
54556;BME280;57291;37.520;15.106;2023-01-30T01:45:53;101601.91;;;7.51;72.87
54556;BME280;57291;37.520;15.106;2023-01-30T01:48:31;101603.53;;;7.52;73.10
54556;BME280;57291;37.520;15.106;2023-01-30T01:51:04;101608.16;;;7.52;73.10
54556;BME280;57291;37.520;15.106;2023-01-30T01:53:55;101605.19;;;7.54;73.06
54556;BME280;57291;37.520;15.106;2023-01-30T01:56:24;101595.44;;;7.52;72.86
54556;BME280;57291;37.520;15.106;2023-01-30T01:58:54;101597.28;;;7.47;72.83
54556;BME280;57291;37.520;15.106;2023-01-30T02:01:23;101599.13;;;7.46;72.88
54556;BME280;57291;37.520;15.106;2023-01-30T02:03:55;101596.13;;;7.43;73.14
54556;BME280;57291;37.520;15.106;2023-01-30T02:06:24;101593.13;;;7.39;73.01
54556;BME280;57291;37.520;15.106;2023-01-30T02:08:54;101601.19;;;7.34;73.37
54556;BME280;57291;37.520;15.106;2023-01-30T02:11:56;101601.38;;;7.27;73.51
54556;BME280;57291;37.520;15.106;2023-01-30T02:14:26;101601.88;;;7.24;73.62
54556;BME280;57291;37.520;15.106;2023-01-30T02:16:54;101604.06;;;7.27;73.92
54556;BME280;57291;37.520;15.106;2023-01-30T02:19:33;101598.97;;;7.31;74.25
54556;BME280;57291;37.520;15.106;2023-01-30T02:22:16;101600.91;;;7.36;74.17
54556;BME280;57291;37.520;15.106;2023-01-30T02:27:32;101601.19;;;7.34;74.23
54556;BME280;57291;37.520;15.106;2023-01-30T02:30:21;101594.13;;;7.33;74.26
54556;BME280;57291;37.520;15.106;2023-01-30T02:36:13;101595.19;;;7.32;74.84
54556;BME280;57291;37.520;15.106;2023-01-30T02:41:36;101592.09;;;7.23;74.69
54556;BME280;57291;37.520;15.106;2023-01-30T02:44:17;101590.16;;;7.19;75.06
54556;BME280;57291;37.520;15.106;2023-01-30T02:46:55;101590.09;;;7.14;74.87
54556;BME280;57291;37.520;15.106;2023-01-30T02:51:58;101576.25;;;7.10;75.48
54556;BME280;57291;37.520;15.106;2023-01-30T02:54:27;101580.03;;;7.09;75.74
54556;BME280;57291;37.520;15.106;2023-01-30T02:56:57;101583.81;;;7.08;75.95
54556;BME280;57291;37.520;15.106;2023-01-30T02:59:43;101577.03;;;7.05;76.34
54556;BME280;57291;37.520;15.106;2023-01-30T03:10:37;101578.09;;;7.04;76.74
54556;BME280;57291;37.520;15.106;2023-01-30T03:15:51;101583.19;;;7.01;76.88
54556;BME280;57291;37.520;15.106;2023-01-30T03:18:20;101574.19;;;6.95;76.58
54556;BME280;57291;37.520;15.106;2023-01-30T03:20:47;101574.94;;;6.91;76.92
54556;BME280;57291;37.520;15.106;2023-01-30T03:23:15;101573.31;;;6.90;76.88
54556;BME280;57291;37.520;15.106;2023-01-30T03:25:42;101574.94;;;6.91;77.41
54556;BME280;57291;37.520;15.106;2023-01-30T03:28:13;101566.59;;;6.92;77.24
54556;BME280;57291;37.520;15.106;2023-01-30T03:30:42;101573.88;;;6.92;77.12
54556;BME280;57291;37.520;15.106;2023-01-30T03:33:10;101568.47;;;6.92;77.17
54556;BME280;57291;37.520;15.106;2023-01-30T03:35:39;101573.63;;;6.93;77.35
54556;BME280;57291;37.520;15.106;2023-01-30T03:38:10;101577.97;;;6.94;77.53
54556;BME280;57291;37.520;15.106;2023-01-30T03:40:38;101576.63;;;6.97;77.37
54556;BME280;57291;37.520;15.106;2023-01-30T03:43:07;101580.50;;;7.01;77.52
54556;BME280;57291;37.520;15.106;2023-01-30T03:45:35;101578.59;;;7.01;77.22
54556;BME280;57291;37.520;15.106;2023-01-30T03:48:02;101577.78;;;7.01;77.15
54556;BME280;57291;37.520;15.106;2023-01-30T03:50:30;101580.72;;;6.99;77.17
54556;BME280;57291;37.520;15.106;2023-01-30T03:52:58;101564.50;;;6.99;77.25
54556;BME280;57291;37.520;15.106;2023-01-30T03:55:25;101572.38;;;7.01;77.29
54556;BME280;57291;37.520;15.106;2023-01-30T03:57:56;101571.84;;;7.04;77.07
54556;BME280;57291;37.520;15.106;2023-01-30T04:00:26;101567.78;;;7.01;77.10
54556;BME280;57291;37.520;15.106;2023-01-30T04:02:54;101564.81;;;7.03;77.03
54556;BME280;57291;37.520;15.106;2023-01-30T04:05:23;101563.69;;;6.99;76.84
54556;BME280;57291;37.520;15.106;2023-01-30T04:07:58;101561.22;;;6.97;76.90
54556;BME280;57291;37.520;15.106;2023-01-30T04:10:26;101562.56;;;6.95;76.93
54556;BME280;57291;37.520;15.106;2023-01-30T04:12:53;101561.41;;;6.91;77.05
54556;BME280;57291;37.520;15.106;2023-01-30T04:15:21;101556.00;;;6.91;77.14
54556;BME280;57291;37.520;15.106;2023-01-30T04:18:11;101551.19;;;6.93;77.22
54556;BME280;57291;37.520;15.106;2023-01-30T04:21:02;101552.81;;;6.94;77.12
54556;BME280;57291;37.520;15.106;2023-01-30T04:23:35;101540.94;;;6.95;77.20
54556;BME280;57291;37.520;15.106;2023-01-30T04:26:03;101547.72;;;6.97;76.79
54556;BME280;57291;37.520;15.106;2023-01-30T04:28:33;101542.56;;;6.96;76.84
54556;BME280;57291;37.520;15.106;2023-01-30T04:31:00;101546.03;;;6.91;76.90
54556;BME280;57291;37.520;15.106;2023-01-30T04:33:50;101546.78;;;6.87;76.90
54556;BME280;57291;37.520;15.106;2023-01-30T04:36:18;101552.19;;;6.87;77.31
54556;BME280;57291;37.520;15.106;2023-01-30T04:38:45;101542.75;;;6.89;77.20
54556;BME280;57291;37.520;15.106;2023-01-30T04:41:12;101543.34;;;6.91;77.00
54556;BME280;57291;37.520;15.106;2023-01-30T04:43:41;101553.56;;;6.89;77.07
54556;BME280;57291;37.520;15.106;2023-01-30T04:46:37;101552.44;;;6.85;77.00
54556;BME280;57291;37.520;15.106;2023-01-30T04:49:04;101548.94;;;6.85;77.45
54556;BME280;57291;37.520;15.106;2023-01-30T04:51:32;101554.88;;;6.87;77.36
54556;BME280;57291;37.520;15.106;2023-01-30T04:53:59;101548.41;;;6.88;77.20
54556;BME280;57291;37.520;15.106;2023-01-30T04:56:26;101555.78;;;6.92;77.28
54556;BME280;57291;37.520;15.106;2023-01-30T04:58:53;101554.19;;;6.96;77.22
54556;BME280;57291;37.520;15.106;2023-01-30T05:01:30;101557.28;;;7.05;76.85
54556;BME280;57291;37.520;15.106;2023-01-30T05:03:58;101560.84;;;7.11;76.37
54556;BME280;57291;37.520;15.106;2023-01-30T05:06:25;101557.59;;;7.09;76.56
54556;BME280;57291;37.520;15.106;2023-01-30T05:08:54;101567.28;;;7.04;76.22
54556;BME280;57291;37.520;15.106;2023-01-30T05:11:23;101565.81;;;6.97;76.26
54556;BME280;57291;37.520;15.106;2023-01-30T05:13:51;101560.28;;;6.87;76.29
54556;BME280;57291;37.520;15.106;2023-01-30T05:16:19;101566.44;;;6.82;76.61
54556;BME280;57291;37.520;15.106;2023-01-30T05:18:47;101565.69;;;6.87;77.07
54556;BME280;57291;37.520;15.106;2023-01-30T05:21:19;101567.97;;;6.95;77.04
54556;BME280;57291;37.520;15.106;2023-01-30T05:23:47;101567.47;;;6.98;76.98
54556;BME280;57291;37.520;15.106;2023-01-30T05:26:14;101569.34;;;6.97;76.64
54556;BME280;57291;37.520;15.106;2023-01-30T05:28:41;101568.22;;;6.93;76.64
54556;BME280;57291;37.520;15.106;2023-01-30T05:31:11;101577.31;;;6.87;76.61
54556;BME280;57291;37.520;15.106;2023-01-30T05:33:39;101571.19;;;6.92;76.96
54556;BME280;57291;37.520;15.106;2023-01-30T05:36:07;101572.63;;;6.99;76.71
54556;BME280;57291;37.520;15.106;2023-01-30T05:38:41;101579.41;;;7.02;76.54
54556;BME280;57291;37.520;15.106;2023-01-30T05:41:10;101579.91;;;6.99;76.69
54556;BME280;57291;37.520;15.106;2023-01-30T05:43:37;101582.63;;;6.99;76.85
54556;BME280;57291;37.520;15.106;2023-01-30T05:46:05;101579.34;;;6.97;76.82
54556;BME280;57291;37.520;15.106;2023-01-30T05:48:33;101577.63;;;6.91;76.48
54556;BME280;57291;37.520;15.106;2023-01-30T05:51:00;101578.38;;;6.86;77.00
54556;BME280;57291;37.520;15.106;2023-01-30T05:53:31;101580.28;;;6.86;76.70
54556;BME280;57291;37.520;15.106;2023-01-30T05:56:02;101584.78;;;6.80;76.52
54556;BME280;57291;37.520;15.106;2023-01-30T05:58:31;101593.22;;;6.84;76.26
54556;BME280;57291;37.520;15.106;2023-01-30T06:01:00;101588.28;;;6.80;75.95
54556;BME280;57291;37.520;15.106;2023-01-30T06:03:27;101592.56;;;6.76;76.09
54556;BME280;57291;37.520;15.106;2023-01-30T06:05:54;101599.78;;;6.71;76.31
54556;BME280;57291;37.520;15.106;2023-01-30T06:08:22;101599.13;;;6.64;76.45
54556;BME280;57291;37.520;15.106;2023-01-30T06:10:49;101598.31;;;6.63;76.67
54556;BME280;57291;37.520;15.106;2023-01-30T06:13:16;101608.91;;;6.65;76.99
54556;BME280;57291;37.520;15.106;2023-01-30T06:15:44;101600.44;;;6.61;77.18
54556;BME280;57291;37.520;15.106;2023-01-30T06:18:11;101616.09;;;6.59;77.19
54556;BME280;57291;37.520;15.106;2023-01-30T06:20:38;101613.06;;;6.55;77.01
54556;BME280;57291;37.520;15.106;2023-01-30T06:23:05;101620.34;;;6.55;77.52
54556;BME280;57291;37.520;15.106;2023-01-30T06:25:32;101610.91;;;6.57;77.39
54556;BME280;57291;37.520;15.106;2023-01-30T06:27:59;101619.94;;;6.63;77.88
54556;BME280;57291;37.520;15.106;2023-01-30T06:30:26;101627.63;;;6.71;77.89
54556;BME280;57291;37.520;15.106;2023-01-30T06:32:54;101628.78;;;6.75;77.78
54556;BME280;57291;37.520;15.106;2023-01-30T06:35:21;101635.56;;;6.78;77.72
54556;BME280;57291;37.520;15.106;2023-01-30T06:37:48;101629.16;;;6.84;76.94
54556;BME280;57291;37.520;15.106;2023-01-30T06:40:15;101627.50;;;7.00;77.02
54556;BME280;57291;37.520;15.106;2023-01-30T06:42:46;101632.41;;;7.03;76.73
54556;BME280;57291;37.520;15.106;2023-01-30T06:45:15;101647.31;;;7.05;76.57
54556;BME280;57291;37.520;15.106;2023-01-30T06:47:48;101635.91;;;7.03;76.65
54556;BME280;57291;37.520;15.106;2023-01-30T06:50:17;101636.81;;;7.09;75.87
54556;BME280;57291;37.520;15.106;2023-01-30T06:52:46;101636.81;;;7.09;76.04
54556;BME280;57291;37.520;15.106;2023-01-30T06:55:15;101638.53;;;7.15;76.29
54556;BME280;57291;37.520;15.106;2023-01-30T06:57:44;101646.31;;;7.34;76.26
54556;BME280;57291;37.520;15.106;2023-01-30T07:00:14;101644.69;;;7.55;75.42
54556;BME280;57291;37.520;15.106;2023-01-30T07:02:42;101639.34;;;7.60;74.64
54556;BME280;57291;37.520;15.106;2023-01-30T07:05:10;101644.81;;;7.65;74.22
54556;BME280;57291;37.520;15.106;2023-01-30T07:07:37;101643.84;;;7.76;74.04
54556;BME280;57291;37.520;15.106;2023-01-30T07:10:06;101653.13;;;8.07;74.10
54556;BME280;57291;37.520;15.106;2023-01-30T07:12:39;101653.09;;;8.34;73.02
54556;BME280;57291;37.520;15.106;2023-01-30T07:15:06;101645.97;;;8.55;72.38
54556;BME280;57291;37.520;15.106;2023-01-30T07:17:34;101653.38;;;8.65;70.96
54556;BME280;57291;37.520;15.106;2023-01-30T07:20:01;101655.03;;;8.71;70.91
54556;BME280;57291;37.520;15.106;2023-01-30T07:22:28;101661.56;;;8.75;69.79
54556;BME280;57291;37.520;15.106;2023-01-30T07:24:55;101667.84;;;8.81;69.22
54556;BME280;57291;37.520;15.106;2023-01-30T07:27:22;101676.34;;;8.89;69.69
54556;BME280;57291;37.520;15.106;2023-01-30T07:29:49;101673.97;;;9.03;69.56
54556;BME280;57291;37.520;15.106;2023-01-30T07:32:18;101675.44;;;9.21;68.67
54556;BME280;57291;37.520;15.106;2023-01-30T07:34:46;101676.34;;;9.37;67.92
54556;BME280;57291;37.520;15.106;2023-01-30T07:37:13;101676.91;;;9.39;67.75
54556;BME280;57291;37.520;15.106;2023-01-30T07:39:41;101672.56;;;9.43;67.80
54556;BME280;57291;37.520;15.106;2023-01-30T07:42:08;101682.69;;;9.58;67.89
54556;BME280;57291;37.520;15.106;2023-01-30T07:44:35;101686.78;;;9.66;67.11
54556;BME280;57291;37.520;15.106;2023-01-30T07:47:02;101687.06;;;9.64;67.63
54556;BME280;57291;37.520;15.106;2023-01-30T07:49:29;101686.00;;;9.75;66.54
54556;BME280;57291;37.520;15.106;2023-01-30T07:51:56;101680.28;;;9.72;66.68
54556;BME280;57291;37.520;15.106;2023-01-30T07:54:23;101680.84;;;9.79;66.32
54556;BME280;57291;37.520;15.106;2023-01-30T07:56:50;101686.88;;;9.91;65.16
54556;BME280;57291;37.520;15.106;2023-01-30T07:59:17;101686.88;;;9.91;64.67
54556;BME280;57291;37.520;15.106;2023-01-30T08:01:44;101684.69;;;9.88;65.42
54556;BME280;57291;37.520;15.106;2023-01-30T08:04:11;101689.84;;;9.90;65.44
54556;BME280;57291;37.520;15.106;2023-01-30T08:06:38;101684.41;;;9.90;65.71
54556;BME280;57291;37.520;15.106;2023-01-30T08:09:06;101688.81;;;10.01;66.19
54556;BME280;57291;37.520;15.106;2023-01-30T08:11:33;101682.03;;;10.19;64.42
54556;BME280;57291;37.520;15.106;2023-01-30T08:14:01;101681.47;;;10.17;63.64
54556;BME280;57291;37.520;15.106;2023-01-30T08:16:28;101681.84;;;10.30;63.71
54556;BME280;57291;37.520;15.106;2023-01-30T08:18:58;101685.09;;;10.48;63.31
54556;BME280;57291;37.520;15.106;2023-01-30T08:21:25;101683.72;;;10.66;62.06
54556;BME280;57291;37.520;15.106;2023-01-30T08:23:52;101688.34;;;10.75;61.27
54556;BME280;57291;37.520;15.106;2023-01-30T08:26:19;101695.44;;;10.76;60.66
54556;BME280;57291;37.520;15.106;2023-01-30T08:28:47;101697.84;;;10.88;60.61
54556;BME280;57291;37.520;15.106;2023-01-30T08:31:15;101687.53;;;11.06;60.37
54556;BME280;57291;37.520;15.106;2023-01-30T08:33:43;101693.44;;;11.28;60.06
54556;BME280;57291;37.520;15.106;2023-01-30T08:36:10;101694.75;;;11.41;58.65
54556;BME280;57291;37.520;15.106;2023-01-30T08:38:37;101687.41;;;11.46;58.17
54556;BME280;57291;37.520;15.106;2023-01-30T08:41:05;101691.44;;;11.59;57.96
54556;BME280;57291;37.520;15.106;2023-01-30T08:43:34;101699.84;;;11.68;57.56
54556;BME280;57291;37.520;15.106;2023-01-30T08:46:03;101692.50;;;11.63;57.14
54556;BME280;57291;37.520;15.106;2023-01-30T08:48:30;101687.25;;;11.82;57.76
54556;BME280;57291;37.520;15.106;2023-01-30T08:51:14;101685.56;;;11.96;56.83
54556;BME280;57291;37.520;15.106;2023-01-30T08:53:41;101691.44;;;12.14;56.49
54556;BME280;57291;37.520;15.106;2023-01-30T08:56:08;101695.38;;;12.37;56.59
54556;BME280;57291;37.520;15.106;2023-01-30T08:58:36;101697.16;;;12.57;56.24
54556;BME280;57291;37.520;15.106;2023-01-30T09:01:06;101703.59;;;12.71;56.28
54556;BME280;57291;37.520;15.106;2023-01-30T09:03:33;101700.78;;;12.81;55.93
54556;BME280;57291;37.520;15.106;2023-01-30T09:06:01;101706.72;;;12.88;54.98
54556;BME280;57291;37.520;15.106;2023-01-30T09:08:28;101705.34;;;12.91;55.27
54556;BME280;57291;37.520;15.106;2023-01-30T09:11:04;101708.25;;;13.00;55.48
54556;BME280;57291;37.520;15.106;2023-01-30T09:13:33;101709.47;;;13.12;54.72
54556;BME280;57291;37.520;15.106;2023-01-30T09:16:00;101716.75;;;13.27;53.71
54556;BME280;57291;37.520;15.106;2023-01-30T09:18:27;101711.41;;;13.41;53.85
54556;BME280;57291;37.520;15.106;2023-01-30T09:21:02;101713.31;;;13.65;52.71
54556;BME280;57291;37.520;15.106;2023-01-30T09:23:29;101714.19;;;13.60;51.63
54556;BME280;57291;37.520;15.106;2023-01-30T09:25:56;101719.34;;;13.61;52.73
54556;BME280;57291;37.520;15.106;2023-01-30T09:28:24;101724.09;;;13.75;51.64
54556;BME280;57291;37.520;15.106;2023-01-30T09:30:51;101718.28;;;13.81;51.51
54556;BME280;57291;37.520;15.106;2023-01-30T09:33:18;101723.38;;;13.88;51.32
54556;BME280;57291;37.520;15.106;2023-01-30T09:35:47;101720.19;;;14.05;51.14
54556;BME280;57291;37.520;15.106;2023-01-30T09:38:14;101728.63;;;14.08;51.29
54556;BME280;57291;37.520;15.106;2023-01-30T09:44:06;101736.31;;;14.25;50.69
54556;BME280;57291;37.520;15.106;2023-01-30T09:54:28;101727.88;;;14.60;51.12
54556;BME280;57291;37.520;15.106;2023-01-30T09:57:18;101731.41;;;14.60;52.21
54556;BME280;57291;37.520;15.106;2023-01-30T10:00:12;101722.25;;;14.51;53.86
54556;BME280;57291;37.520;15.106;2023-01-30T10:05:17;101723.50;;;14.77;54.26
54556;BME280;57291;37.520;15.106;2023-01-30T10:07:52;101713.00;;;14.66;53.41
54556;BME280;57291;37.520;15.106;2023-01-30T10:10:48;101717.31;;;14.86;52.17
54556;BME280;57291;37.520;15.106;2023-01-30T10:16:27;101710.16;;;15.04;50.76
54556;BME280;57291;37.520;15.106;2023-01-30T10:25:18;101701.31;;;14.60;51.21
54556;BME280;57291;37.520;15.106;2023-01-30T10:27:53;101697.22;;;14.76;51.30
54556;BME280;57291;37.520;15.106;2023-01-30T10:30:22;101701.09;;;14.75;52.20
54556;BME280;57291;37.520;15.106;2023-01-30T10:32:57;101693.72;;;14.57;53.48
54556;BME280;57291;37.520;15.106;2023-01-30T10:35:36;101693.81;;;14.52;54.32
54556;BME280;57291;37.520;15.106;2023-01-30T10:41:30;101682.69;;;14.62;52.55
54556;BME280;57291;37.520;15.106;2023-01-30T10:44:02;101677.13;;;14.67;52.71
54556;BME280;57291;37.520;15.106;2023-01-30T11:00:48;101669.56;;;14.78;54.32
54556;BME280;57291;37.520;15.106;2023-01-30T11:03:32;101664.88;;;14.65;54.31
54556;BME280;57291;37.520;15.106;2023-01-30T11:06:05;101650.03;;;14.52;55.25
54556;BME280;57291;37.520;15.106;2023-01-30T11:08:34;101653.03;;;14.69;55.18
54556;BME280;57291;37.520;15.106;2023-01-30T11:11:27;101646.63;;;14.74;55.54
54556;BME280;57291;37.520;15.106;2023-01-30T11:14:03;101646.03;;;14.77;54.98
54556;BME280;57291;37.520;15.106;2023-01-30T11:16:39;101649.69;;;14.72;56.00
54556;BME280;57291;37.520;15.106;2023-01-30T11:19:09;101640.34;;;14.73;55.19
54556;BME280;57291;37.520;15.106;2023-01-30T11:21:52;101639.09;;;14.85;55.42
54556;BME280;57291;37.520;15.106;2023-01-30T11:24:30;101626.25;;;14.66;56.21
54556;BME280;57291;37.520;15.106;2023-01-30T11:27:24;101623.84;;;14.46;56.20
54556;BME280;57291;37.520;15.106;2023-01-30T11:32:30;101613.72;;;14.65;54.99
54556;BME280;57291;37.520;15.106;2023-01-30T11:35:15;101607.78;;;14.91;54.27
54556;BME280;57291;37.520;15.106;2023-01-30T11:37:46;101606.97;;;14.58;54.45
54556;BME280;57291;37.520;15.106;2023-01-30T11:42:46;101605.84;;;14.77;53.18
54556;BME280;57291;37.520;15.106;2023-01-30T11:45:16;101612.91;;;14.65;53.26
54556;BME280;57291;37.520;15.106;2023-01-30T11:47:53;101611.56;;;14.62;53.35
54556;BME280;57291;37.520;15.106;2023-01-30T11:50:45;101606.84;;;14.49;53.06
54556;BME280;57291;37.520;15.106;2023-01-30T11:56:14;101601.84;;;14.84;53.27
54556;BME280;57291;37.520;15.106;2023-01-30T11:58:43;101598.63;;;14.95;54.03
54556;BME280;57291;37.520;15.106;2023-01-30T12:01:16;101590.09;;;14.83;54.78
54556;BME280;57291;37.520;15.106;2023-01-30T12:03:49;101591.47;;;14.53;54.37
54556;BME280;57291;37.520;15.106;2023-01-30T12:06:24;101581.88;;;14.04;55.92
54556;BME280;57291;37.520;15.106;2023-01-30T12:08:55;101587.00;;;13.54;57.82
54556;BME280;57291;37.520;15.106;2023-01-30T12:14:36;101575.41;;;13.62;58.24
54556;BME280;57291;37.520;15.106;2023-01-30T12:17:16;101570.91;;;13.52;59.35
54556;BME280;57291;37.520;15.106;2023-01-30T12:19:53;101564.91;;;13.31;58.97
54556;BME280;57291;37.520;15.106;2023-01-30T12:25:00;101555.97;;;13.45;60.79
54556;BME280;57291;37.520;15.106;2023-01-30T12:27:45;101561.75;;;13.43;58.91
54556;BME280;57291;37.520;15.106;2023-01-30T12:30:35;101570.75;;;13.44;60.09
54556;BME280;57291;37.520;15.106;2023-01-30T12:33:04;101564.53;;;13.38;60.52
54556;BME280;57291;37.520;15.106;2023-01-30T12:38:40;101559.69;;;13.54;58.90
54556;BME280;57291;37.520;15.106;2023-01-30T12:43:54;101555.94;;;13.50;60.59
54556;BME280;57291;37.520;15.106;2023-01-30T13:03:32;101540.47;;;13.97;60.41
54556;BME280;57291;37.520;15.106;2023-01-30T13:09:37;101527.06;;;14.28;57.12
54556;BME280;57291;37.520;15.106;2023-01-30T13:14:59;101530.88;;;14.46;58.37
54556;BME280;57291;37.520;15.106;2023-01-30T13:17:33;101532.47;;;14.47;57.59
54556;BME280;57291;37.520;15.106;2023-01-30T13:28:50;101521.53;;;14.47;57.89
54556;BME280;57291;37.520;15.106;2023-01-30T13:31:21;101517.47;;;14.30;57.91
54556;BME280;57291;37.520;15.106;2023-01-30T13:33:52;101525.59;;;14.36;57.87
54556;BME280;57291;37.520;15.106;2023-01-30T13:36:24;101510.19;;;14.40;58.87
54556;BME280;57291;37.520;15.106;2023-01-30T13:39:03;101513.84;;;14.49;58.20
54556;BME280;57291;37.520;15.106;2023-01-30T13:41:36;101517.94;;;14.51;57.33
54556;BME280;57291;37.520;15.106;2023-01-30T13:44:27;101509.44;;;14.53;57.74
54556;BME280;57291;37.520;15.106;2023-01-30T13:46:58;101506.53;;;14.44;57.49
54556;BME280;57291;37.520;15.106;2023-01-30T13:49:45;101506.84;;;14.43;57.63
54556;BME280;57291;37.520;15.106;2023-01-30T14:08:29;101530.94;;;14.41;57.18
54556;BME280;57291;37.520;15.106;2023-01-30T14:10:59;101518.50;;;14.35;56.65
54556;BME280;57291;37.520;15.106;2023-01-30T14:13:27;101517.09;;;14.51;56.41
54556;BME280;57291;37.520;15.106;2023-01-30T14:16:10;101516.44;;;14.26;57.64
54556;BME280;57291;37.520;15.106;2023-01-30T14:18:37;101526.38;;;14.22;57.70
54556;BME280;57291;37.520;15.106;2023-01-30T14:21:22;101521.09;;;14.26;57.70
54556;BME280;57291;37.520;15.106;2023-01-30T14:24:21;101521.09;;;14.26;56.99
54556;BME280;57291;37.520;15.106;2023-01-30T14:26:59;101514.31;;;14.23;57.06
54556;BME280;57291;37.520;15.106;2023-01-30T14:34:43;101535.25;;;14.14;56.86
54556;BME280;57291;37.520;15.106;2023-01-30T15:04:42;101515.78;;;13.50;56.10
54556;BME280;57291;37.520;15.106;2023-01-30T15:07:23;101521.00;;;13.47;55.42
54556;BME280;57291;37.520;15.106;2023-01-30T15:10:15;101520.47;;;13.45;55.85
54556;BME280;57291;37.520;15.106;2023-01-30T15:15:43;101521.38;;;13.40;56.05
54556;BME280;57291;37.520;15.106;2023-01-30T15:18:20;101511.84;;;13.37;56.59
54556;BME280;57291;37.520;15.106;2023-01-30T15:21:25;101522.84;;;13.32;56.20
54556;BME280;57291;37.520;15.106;2023-01-30T15:24:37;101527.78;;;13.30;56.33
54556;BME280;57291;37.520;15.106;2023-01-30T15:29:59;101515.59;;;13.23;56.58
54556;BME280;57291;37.520;15.106;2023-01-30T15:32:30;101509.66;;;13.15;56.42
54556;BME280;57291;37.520;15.106;2023-01-30T15:37:56;101512.75;;;13.09;58.27
54556;BME280;57291;37.520;15.106;2023-01-30T15:40:26;101514.44;;;13.05;57.62
54556;BME280;57291;37.520;15.106;2023-01-30T15:51:14;101527.75;;;12.87;60.07
54556;BME280;57291;37.520;15.106;2023-01-30T15:53:44;101530.84;;;12.81;60.83
54556;BME280;57291;37.520;15.106;2023-01-30T15:56:38;101533.38;;;12.72;58.19
54556;BME280;57291;37.520;15.106;2023-01-30T15:59:18;101529.63;;;12.68;59.24
54556;BME280;57291;37.520;15.106;2023-01-30T16:01:58;101529.09;;;12.66;59.91
54556;BME280;57291;37.520;15.106;2023-01-30T16:04:27;101531.31;;;12.64;60.04
54556;BME280;57291;37.520;15.106;2023-01-30T16:06:54;101528.03;;;12.62;59.63
54556;BME280;57291;37.520;15.106;2023-01-30T16:09:23;101526.44;;;12.61;61.53